Time;durP1;ratioP1;P1;durP2;ratioP2;P2;SDS_P1;SDS_P2;PMS_P1;PMS_P2;Temp;Humidity;BMP_temperature;BMP_pressure;BME280_temperature;BME280_humidity;BME280_pressure;Samples;Min_cycle;Max_cycle;Signal;HPM_P1;HPM_P2
2023/11/03 00:01:09;;;;;;;2.00;0.77;;;;;;;10.78;72.26;97437.41;5044292;28;20581;-72
2023/11/03 00:03:37;;;;;;;3.33;0.90;;;;;;;10.76;72.02;97440.25;5039977;28;20947;-72
2023/11/03 00:06:04;;;;;;;1.73;0.67;;;;;;;10.74;72.12;97444.94;5044935;28;20214;-72
2023/11/03 00:08:31;;;;;;;2.00;0.80;;;;;;;10.71;72.37;97436.47;5044939;28;20203;-73
2023/11/03 00:10:58;;;;;;;1.70;0.87;;;;;;;10.69;72.46;97441.13;5048340;28;20424;-72
2023/11/03 00:13:24;;;;;;;1.57;0.53;;;;;;;10.66;72.08;97447.63;5049155;28;20692;-72
2023/11/03 00:15:51;;;;;;;1.30;0.63;;;;;;;10.63;72.21;97457.78;5050767;28;20202;-72
2023/11/03 00:18:19;;;;;;;2.93;0.70;;;;;;;10.58;72.46;97466.28;5047664;28;20217;-72
2023/11/03 00:20:48;;;;;;;2.77;0.73;;;;;;;10.55;72.67;97468.50;5050439;28;20296;-71
2023/11/03 00:23:14;;;;;;;2.60;0.83;;;;;;;10.51;72.76;97475.16;5047301;28;20236;-71
2023/11/03 00:25:41;;;;;;;3.50;0.70;;;;;;;10.51;72.24;97475.16;5046405;28;20207;-73
2023/11/03 00:28:07;;;;;;;2.73;1.10;;;;;;;10.49;72.36;97471.84;5052663;28;20198;-71
2023/11/03 00:30:35;;;;;;;3.80;1.10;;;;;;;10.47;72.62;97482.66;5048077;28;20422;-73
2023/11/03 00:33:02;;;;;;;2.77;0.70;;;;;;;10.42;72.28;97472.53;5052673;28;20219;-71
2023/11/03 00:35:28;;;;;;;2.93;0.80;;;;;;;10.43;72.24;97474.19;5050175;28;20225;-72
2023/11/03 00:37:56;;;;;;;3.87;0.87;;;;;;;10.41;71.85;97476.19;5049584;28;20698;-71
2023/11/03 00:40:23;;;;;;;5.10;0.70;;;;;;;10.38;71.93;97465.94;5047488;28;20205;-72
2023/11/03 00:42:49;;;;;;;2.87;1.07;;;;;;;10.36;71.96;97470.59;5049262;28;20238;-72
2023/11/03 00:45:16;;;;;;;7.80;0.80;;;;;;;10.33;71.61;97475.41;5047257;28;20210;-72
2023/11/03 00:47:42;;;;;;;5.17;0.90;;;;;;;10.33;71.37;97476.25;5048992;28;20633;-72
2023/11/03 00:50:09;;;;;;;2.93;0.97;;;;;;;10.34;70.96;97472.59;5042069;28;20687;-70
2023/11/03 00:52:36;;;;;;;1.57;0.60;;;;;;;10.29;71.32;97463.47;5047006;28;20212;-72
2023/11/03 00:55:06;;;;;;;1.50;0.70;;;;;;;10.27;71.01;97470.78;5044600;28;20753;-72
2023/11/03 00:57:33;;;;;;;4.40;0.80;;;;;;;10.28;70.84;97470.59;5048265;28;20297;-73
2023/11/03 00:59:59;;;;;;;4.83;1.07;;;;;;;10.24;70.64;97484.41;5048897;28;20691;-72
2023/11/03 01:02:26;;;;;;;2.63;0.70;;;;;;;10.22;70.85;97470.47;5048097;28;20206;-72
2023/11/03 01:04:53;;;;;;;2.60;0.90;;;;;;;10.18;70.97;97479.78;5043413;28;20230;-71
2023/11/03 01:07:19;;;;;;;4.53;1.13;;;;;;;10.21;70.54;97488.25;5048370;28;20297;-72
2023/11/03 01:09:45;;;;;;;1.93;0.77;;;;;;;10.20;69.99;97494.59;5048929;28;20217;-72
2023/11/03 01:12:13;;;;;;;4.80;0.80;;;;;;;10.19;69.91;97505.41;5048392;28;20505;-72
2023/11/03 01:14:40;;;;;;;3.07;0.60;;;;;;;10.16;69.82;97503.88;5045841;28;20226;-70
2023/11/03 01:17:07;;;;;;;3.00;0.97;;;;;;;10.13;69.71;97506.88;5043405;28;20340;-72
2023/11/03 01:19:34;;;;;;;2.07;0.77;;;;;;;10.08;70.06;97503.88;5046971;28;20640;-69
2023/11/03 01:22:02;;;;;;;3.47;0.80;;;;;;;10.05;69.89;97496.25;5047966;28;20199;-72
2023/11/03 01:24:31;;;;;;;3.77;0.80;;;;;;;10.05;69.83;97496.25;5047057;28;20229;-72
2023/11/03 01:26:59;;;;;;;3.40;0.70;;;;;;;9.99;70.34;97504.91;5044900;28;20213;-71
2023/11/03 01:29:26;;;;;;;4.20;1.13;;;;;;;9.99;69.36;97497.78;5048181;28;20224;-72
2023/11/03 01:31:53;;;;;;;2.33;0.97;;;;;;;9.96;69.57;97500.75;5048793;28;20206;-72
2023/11/03 01:34:20;;;;;;;3.37;0.80;;;;;;;9.93;69.74;97494.94;5043413;28;20329;-72
2023/11/03 01:36:46;;;;;;;2.93;0.70;;;;;;;9.89;70.01;97489.16;5045272;28;20201;-71
2023/11/03 01:39:15;;;;;;;4.30;0.90;;;;;;;9.87;70.11;97493.78;5046631;28;20212;-71
2023/11/03 01:41:41;;;;;;;4.50;1.10;;;;;;;9.81;69.94;97505.13;5043637;28;20243;-71
2023/11/03 01:44:11;;;;;;;4.23;0.80;;;;;;;9.81;69.73;97505.13;5048954;28;20226;-73
2023/11/03 01:46:40;;;;;;;3.17;0.70;;;;;;;9.83;69.52;97516.41;5046839;28;20210;-71
2023/11/03 01:49:08;;;;;;;4.87;0.80;;;;;;;9.80;69.62;97519.41;5046240;28;20222;-72
2023/11/03 01:51:36;;;;;;;5.30;1.13;;;;;;;9.78;69.99;97523.22;5045786;28;20473;-72
2023/11/03 01:54:02;;;;;;;3.13;0.80;;;;;;;9.74;69.54;97520.91;5048732;28;20221;-74
2023/11/03 01:56:30;;;;;;;2.93;0.90;;;;;;;9.70;70.00;97522.22;5041341;28;20206;-72
2023/11/03 01:58:59;;;;;;;4.00;0.90;;;;;;;9.70;69.91;97532.03;5041784;28;20209;-72
2023/11/03 02:01:27;;;;;;;5.50;1.10;;;;;;;9.69;69.73;97522.38;5043277;28;20225;-71
2023/11/03 02:03:54;;;;;;;4.60;0.90;;;;;;;9.62;70.18;97527.56;5045262;28;20221;-73
2023/11/03 02:06:21;;;;;;;3.03;0.93;;;;;;;9.63;69.92;97526.56;5042119;28;20214;-72
2023/11/03 02:08:49;;;;;;;2.67;0.77;;;;;;;9.63;70.19;97529.22;5046331;28;20256;-72
2023/11/03 02:11:24;;;;;;;4.33;1.30;;;;;;;9.59;70.48;97540.34;5044237;28;20212;-72
2023/11/03 02:13:50;;;;;;;3.80;1.17;;;;;;;9.53;70.41;97548.97;5044769;28;20216;-73
2023/11/03 02:16:17;;;;;;;3.80;1.13;;;;;;;9.54;70.24;97553.28;5044913;28;20210;-74
2023/11/03 02:18:43;;;;;;;5.10;0.93;;;;;;;9.52;70.76;97550.78;5041684;28;20205;-72
2023/11/03 02:21:12;;;;;;;5.97;1.00;;;;;;;9.50;70.38;97568.72;5043381;28;20202;-72
2023/11/03 02:23:40;;;;;;;2.87;0.77;;;;;;;9.53;70.62;97570.22;5043889;28;20279;-71
2023/11/03 02:26:06;;;;;;;3.17;1.03;;;;;;;9.48;70.63;97565.44;5045528;28;20208;-72
2023/11/03 02:28:33;;;;;;;3.00;0.90;;;;;;;9.48;70.86;97562.78;5042005;28;20214;-72
2023/11/03 02:31:00;;;;;;;5.47;0.93;;;;;;;9.42;71.41;97563.41;5040834;28;20218;-72
2023/11/03 02:33:27;;;;;;;6.83;1.10;;;;;;;9.47;71.40;97552.31;5043237;28;20235;-71
2023/11/03 02:35:53;;;;;;;3.20;1.13;;;;;;;9.46;71.26;97554.13;5039913;28;20210;-72
2023/11/03 02:38:19;;;;;;;4.07;0.90;;;;;;;9.40;71.90;97557.44;5045028;28;20202;-72
2023/11/03 02:40:54;;;;;;;4.57;1.00;;;;;;;9.35;72.00;97557.09;5041785;28;20750;-72
2023/11/03 02:43:20;;;;;;;2.67;1.03;;;;;;;9.30;72.23;97559.44;5037478;28;20225;-72
2023/11/03 02:45:47;;;;;;;3.23;0.70;;;;;;;9.28;72.30;97564.91;5040425;28;20213;-71
2023/11/03 02:48:13;;;;;;;4.90;1.10;;;;;;;9.30;73.02;97570.06;5040667;28;20575;-73
2023/11/03 02:50:39;;;;;;;4.30;1.07;;;;;;;9.30;72.76;97578.03;5041912;28;20577;-72
2023/11/03 02:53:07;;;;;;;5.50;1.03;;;;;;;9.28;72.92;97570.22;5036809;28;20228;-72
2023/11/03 02:55:33;;;;;;;8.47;1.80;;;;;;;9.29;72.86;97563.91;5041960;28;20676;-73
2023/11/03 02:58:01;;;;;;;4.47;1.23;;;;;;;9.32;72.64;97565.38;5042239;28;20217;-72
2023/11/03 03:00:28;;;;;;;2.93;1.00;;;;;;;9.29;72.98;97560.44;5041882;28;20662;-70
2023/11/03 03:02:55;;;;;;;4.83;1.00;;;;;;;9.28;72.67;97558.78;5040246;28;20214;-72
2023/11/03 03:05:21;;;;;;;4.07;1.30;;;;;;;9.26;72.99;97569.56;5042602;28;20233;-73
2023/11/03 03:07:48;;;;;;;2.67;1.17;;;;;;;9.30;73.25;97567.41;5040387;28;20695;-72
2023/11/03 03:10:14;;;;;;;2.73;1.30;;;;;;;9.27;73.15;97555.28;5036063;28;20205;-72
2023/11/03 03:12:41;;;;;;;4.60;1.17;;;;;;;9.26;73.40;97553.63;5038987;28;20704;-72
2023/11/03 03:15:10;;;;;;;5.53;1.10;;;;;;;9.26;72.95;97547.47;5044854;28;20198;-72
2023/11/03 03:17:36;;;;;;;6.83;1.43;;;;;;;9.21;73.03;97533.84;5045631;28;20205;-73
2023/11/03 03:20:04;;;;;;;3.27;1.33;;;;;;;9.20;73.23;97532.19;5039726;28;20576;-72
2023/11/03 03:22:30;;;;;;;5.07;0.90;;;;;;;9.23;72.92;97521.25;5044568;28;20210;-73
2023/11/03 03:24:56;;;;;;;5.67;1.37;;;;;;;9.19;72.81;97522.56;5044389;28;20240;-73
2023/11/03 03:27:23;;;;;;;4.47;0.90;;;;;;;9.16;73.56;97514.91;5039441;28;20676;-72
2023/11/03 03:29:49;;;;;;;3.13;1.13;;;;;;;9.16;73.36;97520.22;5044333;28;20232;-72
2023/11/03 03:32:17;;;;;;;2.63;0.70;;;;;;;9.15;73.16;97518.56;5042145;28;20210;-72
2023/11/03 03:34:44;;;;;;;3.20;0.70;;;;;;;9.13;73.35;97507.31;5045835;28;20233;-72
2023/11/03 03:37:12;;;;;;;3.50;0.83;;;;;;;9.11;73.20;97510.13;5040713;28;20205;-72
2023/11/03 03:39:38;;;;;;;5.00;1.13;;;;;;;9.09;73.37;97508.63;5043119;28;20649;-71
2023/11/03 03:42:05;;;;;;;3.33;0.80;;;;;;;9.06;73.55;97496.50;5039814;28;20208;-72
2023/11/03 03:44:32;;;;;;;7.13;1.20;;;;;;;9.04;73.92;97491.34;5043478;28;20322;-72
2023/11/03 03:46:59;;;;;;;4.30;0.90;;;;;;;9.00;73.82;97483.88;5037441;28;20198;-70
2023/11/03 03:49:27;;;;;;;3.83;0.83;;;;;;;8.98;73.64;97478.72;5043919;28;20205;-73
2023/11/03 03:51:53;;;;;;;3.97;0.73;;;;;;;8.99;74.13;97482.22;5044168;28;20201;-72
2023/11/03 03:54:20;;;;;;;4.23;1.20;;;;;;;8.98;74.46;97464.63;5041645;28;20221;-72
2023/11/03 03:56:46;;;;;;;3.13;0.90;;;;;;;8.96;74.44;97470.09;5041570;28;20210;-71
2023/11/03 03:59:12;;;;;;;4.33;0.80;;;;;;;8.97;74.14;97468.28;5044189;28;20232;-71
2023/11/03 04:01:39;;;;;;;3.33;0.93;;;;;;;8.96;74.23;97470.09;5043458;28;20208;-72
2023/11/03 04:04:07;;;;;;;2.17;0.80;;;;;;;8.95;74.20;97481.75;5040045;28;20765;-73
2023/11/03 04:06:34;;;;;;;4.10;0.83;;;;;;;8.94;74.84;97473.94;5042921;28;20630;-73
2023/11/03 04:09:01;;;;;;;5.60;1.20;;;;;;;8.91;75.14;97483.06;5041489;28;20205;-72
2023/11/03 04:11:28;;;;;;;5.63;1.13;;;;;;;8.91;75.27;97485.72;5045780;28;20677;-72
2023/11/03 04:13:54;;;;;;;2.53;1.10;;;;;;;8.91;75.52;97496.31;5041342;28;20287;-72
2023/11/03 04:16:21;;;;;;;2.80;1.00;;;;;;;8.90;75.63;97494.66;5041121;28;20228;-72
2023/11/03 04:18:48;;;;;;;3.03;0.90;;;;;;;8.89;75.79;97502.78;5041656;28;20255;-72
2023/11/03 04:21:14;;;;;;;3.67;1.20;;;;;;;8.88;75.19;97501.97;5041898;28;20585;-72
2023/11/03 04:23:42;;;;;;;5.37;1.00;;;;;;;8.91;75.10;97506.94;5040217;28;20236;-72
2023/11/03 04:26:08;;;;;;;3.93;1.00;;;;;;;8.90;75.77;97501.78;5037606;28;20206;-73
2023/11/03 04:28:36;;;;;;;4.50;0.93;;;;;;;8.90;75.24;97505.28;5042772;28;20299;-73
2023/11/03 04:31:02;;;;;;;4.67;0.90;;;;;;;8.89;75.61;97511.56;5038791;28;20214;-72
2023/11/03 04:33:29;;;;;;;2.27;0.77;;;;;;;8.86;75.44;97498.63;5043271;28;20229;-72
2023/11/03 04:35:55;;;;;;;3.73;0.80;;;;;;;8.87;75.88;97504.78;5041318;28;20209;-71
2023/11/03 04:38:22;;;;;;;4.43;0.90;;;;;;;8.87;75.66;97504.78;5041456;28;20214;-70
2023/11/03 04:40:49;;;;;;;4.27;0.87;;;;;;;8.86;76.15;97511.06;5039016;28;20218;-71
2023/11/03 04:43:16;;;;;;;3.97;0.80;;;;;;;8.86;75.69;97514.56;5040570;28;21336;-72
2023/11/03 04:45:43;;;;;;;4.87;1.00;;;;;;;8.88;75.56;97514.41;5039238;28;20222;-73
2023/11/03 04:48:09;;;;;;;6.27;1.30;;;;;;;8.85;75.93;97510.25;5041639;28;20213;-72
2023/11/03 04:50:39;;;;;;;2.57;1.00;;;;;;;8.85;75.66;97512.06;5038348;28;20202;-72
2023/11/03 04:53:05;;;;;;;1.60;0.70;;;;;;;8.81;76.13;97511.53;5045169;28;20253;-72
2023/11/03 04:55:32;;;;;;;2.90;0.80;;;;;;;8.84;76.18;97513.88;5034667;28;20206;-72
2023/11/03 04:58:01;;;;;;;2.93;1.00;;;;;;;8.82;75.85;97523.81;5040039;28;20617;-72
2023/11/03 05:00:27;;;;;;;3.43;1.00;;;;;;;8.84;75.97;97521.84;5045957;28;20209;-72
2023/11/03 05:02:54;;;;;;;2.03;0.80;;;;;;;8.80;76.84;97517.84;5046770;28;20212;-72
2023/11/03 05:05:23;;;;;;;5.07;1.20;;;;;;;8.82;75.80;97531.78;5043418;28;20605;-72
2023/11/03 05:07:50;;;;;;;3.60;0.93;;;;;;;8.86;76.03;97529.66;5049008;28;20213;-70
2023/11/03 05:10:16;;;;;;;4.33;0.70;;;;;;;8.84;76.12;97528.97;5044693;28;20206;-72
2023/11/03 05:12:43;;;;;;;6.27;1.20;;;;;;;8.81;75.81;97532.78;5045946;28;20237;-73
2023/11/03 05:15:11;;;;;;;4.73;0.90;;;;;;;8.85;75.88;97523.50;5042142;28;20205;-72
2023/11/03 05:17:38;;;;;;;2.23;1.00;;;;;;;8.83;76.10;97530.78;5041542;28;20212;-73
2023/11/03 05:20:08;;;;;;;3.10;0.70;;;;;;;8.83;76.27;97517.53;5041072;28;20210;-72
2023/11/03 05:22:35;;;;;;;2.67;0.90;;;;;;;8.83;76.10;97527.31;5043429;28;20212;-72
2023/11/03 05:25:01;;;;;;;1.97;0.60;;;;;;;8.85;76.24;97518.19;5043276;28;20252;-72
2023/11/03 05:27:28;;;;;;;3.30;1.10;;;;;;;8.84;76.60;97513.88;5044155;28;20213;-72
2023/11/03 05:29:54;;;;;;;3.20;1.00;;;;;;;8.81;76.21;97516.84;5041755;28;20208;-71
2023/11/03 05:32:22;;;;;;;4.50;0.80;;;;;;;8.78;76.27;97514.53;5043757;28;21134;-72
2023/11/03 05:34:48;;;;;;;2.60;0.60;;;;;;;8.81;76.52;97516.84;5040684;28;20241;-72
2023/11/03 05:37:15;;;;;;;2.03;0.70;;;;;;;8.82;76.89;97507.91;5038820;28;20202;-72
2023/11/03 05:39:42;;;;;;;3.83;0.80;;;;;;;8.81;76.83;97522.16;5043531;28;20259;-72
2023/11/03 05:42:08;;;;;;;2.20;0.97;;;;;;;8.80;76.99;97520.50;5036700;28;20223;-72
2023/11/03 05:44:35;;;;;;;4.20;1.00;;;;;;;8.82;76.52;97521.16;5046191;28;20221;-72
2023/11/03 05:47:02;;;;;;;2.90;0.73;;;;;;;8.83;76.13;97529.97;5042239;28;20202;-72
2023/11/03 05:49:30;;;;;;;3.73;1.20;;;;;;;8.81;76.52;97530.13;5043836;28;20759;-72
2023/11/03 05:51:56;;;;;;;3.23;0.80;;;;;;;8.82;76.94;97529.13;5045122;28;20673;-72
2023/11/03 05:54:23;;;;;;;2.23;0.70;;;;;;;8.81;76.62;97529.28;5043335;28;20222;-73
2023/11/03 05:56:50;;;;;;;3.37;1.07;;;;;;;8.77;77.30;97520.03;5045600;28;20217;-72
2023/11/03 05:59:16;;;;;;;4.73;0.83;;;;;;;8.79;76.44;97518.84;5041486;28;20218;-72
2023/11/03 06:01:43;;;;;;;2.93;1.83;;;;;;;8.80;76.61;97528.47;5042069;28;20202;-72
2023/11/03 06:04:10;;;;;;;4.30;0.80;;;;;;;8.77;76.75;97534.13;5042887;28;20279;-72
2023/11/03 06:06:38;;;;;;;3.93;0.80;;;;;;;8.78;76.54;97535.75;5037290;28;20218;-70
2023/11/03 06:09:05;;;;;;;3.30;0.60;;;;;;;8.78;77.00;97538.41;5043104;28;20212;-72
2023/11/03 06:11:31;;;;;;;3.90;0.73;;;;;;;8.79;76.86;97537.41;5033834;28;20657;-72
2023/11/03 06:13:58;;;;;;;2.30;1.20;;;;;;;8.80;76.57;97538.25;5046431;28;20225;-71
2023/11/03 06:16:24;;;;;;;2.93;0.60;;;;;;;8.83;76.50;97537.94;5036958;28;21042;-70
2023/11/03 06:18:50;;;;;;;2.77;0.70;;;;;;;8.80;76.16;97536.41;5042900;28;20606;-72
2023/11/03 06:21:17;;;;;;;6.27;0.70;;;;;;;8.84;76.33;97543.06;5040716;28;20665;-72
2023/11/03 06:23:45;;;;;;;4.13;1.03;;;;;;;8.84;76.46;97540.41;5043822;28;20727;-71
2023/11/03 06:26:12;;;;;;;2.57;1.13;;;;;;;8.80;76.59;97552.34;5038688;28;20229;-72
2023/11/03 06:28:38;;;;;;;3.80;1.10;;;;;;;8.82;76.73;97550.34;5042010;28;20472;-72
2023/11/03 06:31:05;;;;;;;3.73;1.13;;;;;;;8.80;77.00;97548.84;5043120;28;20231;-72
2023/11/03 06:33:31;;;;;;;3.43;1.00;;;;;;;8.76;77.07;97561.63;5043658;28;20225;-71
2023/11/03 06:35:59;;;;;;;2.97;0.80;;;;;;;8.77;77.30;97559.81;5041462;28;20348;-72
2023/11/03 06:38:25;;;;;;;2.63;0.80;;;;;;;8.77;76.58;97562.47;5044686;28;20210;-71
2023/11/03 06:40:53;;;;;;;3.60;0.70;;;;;;;8.80;77.02;97573.56;5039099;28;20669;-71
2023/11/03 06:43:20;;;;;;;6.30;1.10;;;;;;;8.79;77.19;97569.25;5039030;28;20229;-72
2023/11/03 06:45:46;;;;;;;3.60;1.07;;;;;;;8.80;76.96;97568.25;5038238;28;20587;-73
2023/11/03 06:48:13;;;;;;;2.10;0.63;;;;;;;8.85;77.00;97579.22;5040653;28;20643;-71
2023/11/03 06:50:39;;;;;;;1.63;0.90;;;;;;;8.90;77.11;97578.75;5034430;28;20720;-72
2023/11/03 06:53:06;;;;;;;4.93;0.70;;;;;;;8.90;77.39;97563.66;5040853;28;20759;-72
2023/11/03 06:55:32;;;;;;;5.60;0.90;;;;;;;8.91;76.61;97557.38;5041706;28;20194;-73
2023/11/03 06:58:01;;;;;;;2.03;0.70;;;;;;;8.94;77.10;97567.66;5040048;28;20214;-72
2023/11/03 07:00:28;;;;;;;2.10;0.90;;;;;;;9.00;76.13;97568.81;5036237;28;20836;-72
2023/11/03 07:02:56;;;;;;;2.03;0.70;;;;;;;9.04;76.49;97570.16;5041659;28;20236;-72
2023/11/03 07:05:23;;;;;;;3.27;0.80;;;;;;;9.08;76.55;97565.38;5040001;28;20661;-73
2023/11/03 07:07:49;;;;;;;4.57;0.67;;;;;;;9.14;76.21;97562.88;5043257;28;20591;-73
2023/11/03 07:10:16;;;;;;;2.87;0.73;;;;;;;9.10;76.20;97564.22;5037932;28;20691;-73
2023/11/03 07:12:43;;;;;;;2.50;0.90;;;;;;;9.14;75.91;97572.66;5039419;28;20679;-73
2023/11/03 07:15:11;;;;;;;4.33;0.83;;;;;;;9.15;75.78;97579.63;5041165;28;20232;-73
2023/11/03 07:17:38;;;;;;;3.17;0.80;;;;;;;9.19;75.67;97586.28;5045323;28;20212;-72
2023/11/03 07:20:08;;;;;;;2.17;0.80;;;;;;;9.26;75.52;97580.16;5041703;28;20212;-73
2023/11/03 07:22:34;;;;;;;5.17;1.37;;;;;;;9.25;75.43;97591.78;5040938;28;20209;-73
2023/11/03 07:25:01;;;;;;;1.90;0.77;;;;;;;9.26;75.81;97600.59;5039507;28;20232;-73
2023/11/03 07:27:28;;;;;;;2.93;0.60;;;;;;;9.28;75.75;97603.91;5038450;28;20485;-73
2023/11/03 07:29:55;;;;;;;3.40;0.80;;;;;;;9.28;75.76;97607.41;5041577;28;20201;-73
2023/11/03 07:32:23;;;;;;;3.63;1.00;;;;;;;9.33;75.55;97620.16;5041131;28;20234;-72
2023/11/03 07:34:49;;;;;;;1.70;0.80;;;;;;;9.36;74.79;97631.31;5043037;28;20302;-73
2023/11/03 07:37:17;;;;;;;2.90;1.17;;;;;;;9.37;75.04;97632.97;5037196;28;20261;-71
2023/11/03 07:39:44;;;;;;;2.67;0.87;;;;;;;9.46;74.48;97644.44;5042870;28;20214;-73
2023/11/03 07:42:11;;;;;;;3.27;0.90;;;;;;;9.47;74.57;97638.16;5036715;28;20206;-72
2023/11/03 07:44:37;;;;;;;3.30;0.67;;;;;;;9.51;74.12;97660.72;5039411;28;20222;-72
2023/11/03 07:47:06;;;;;;;3.40;0.90;;;;;;;9.54;74.22;97652.41;5039616;28;20221;-73
2023/11/03 07:49:36;;;;;;;6.63;1.57;;;;;;;9.56;73.91;97650.44;5041258;28;20209;-73
2023/11/03 07:52:02;;;;;;;1.93;0.60;;;;;;;9.59;73.95;97655.44;5039976;28;20583;-73
2023/11/03 07:54:29;;;;;;;4.73;0.80;;;;;;;9.57;73.85;97636.16;5044385;28;20233;-73
2023/11/03 07:56:56;;;;;;;2.30;0.70;;;;;;;9.57;73.81;97641.47;5040865;28;20296;-71
2023/11/03 07:59:22;;;;;;;2.37;0.80;;;;;;;9.63;73.56;97651.44;5041501;28;20241;-73
2023/11/03 08:01:49;;;;;;;3.47;0.80;;;;;;;9.71;72.71;97648.78;5040545;28;20202;-73
2023/11/03 08:04:16;;;;;;;5.40;1.60;;;;;;;9.78;72.32;97648.97;5042380;28;20835;-71
2023/11/03 08:06:48;;;;;;;2.97;1.63;;;;;;;9.78;72.76;97659.59;5041461;28;20323;-73
2023/11/03 08:09:14;;;;;;;1.60;0.90;;;;;;;9.81;72.80;97659.28;5041636;28;20233;-73
2023/11/03 08:11:41;;;;;;;6.50;1.93;;;;;;;9.83;72.51;97653.81;5039879;28;20325;-73
2023/11/03 08:14:07;;;;;;;4.93;1.70;;;;;;;9.88;72.62;97664.75;5041856;28;20307;-74
2023/11/03 08:16:34;;;;;;;2.43;0.97;;;;;;;9.91;72.15;97664.41;5042173;28;20211;-73
2023/11/03 08:19:01;;;;;;;2.20;0.90;;;;;;;9.91;72.08;97653.78;5044754;28;20210;-74
2023/11/03 08:21:27;;;;;;;2.37;0.70;;;;;;;9.99;71.57;97661.78;5040167;28;20875;-73
2023/11/03 08:23:55;;;;;;;4.47;1.10;;;;;;;10.04;71.39;97665.56;5040680;28;20233;-73
2023/11/03 08:26:21;;;;;;;3.73;1.10;;;;;;;10.05;71.54;97661.91;5039478;28;20226;-72
2023/11/03 08:28:49;;;;;;;5.13;1.30;;;;;;;10.09;71.41;97668.56;5043657;28;20210;-73
2023/11/03 08:31:15;;;;;;;5.17;1.20;;;;;;;10.16;70.82;97683.88;5037627;28;20232;-73
2023/11/03 08:33:42;;;;;;;3.30;0.73;;;;;;;10.23;70.41;97676.91;5042196;28;20234;-73
2023/11/03 08:36:09;;;;;;;2.70;1.00;;;;;;;10.22;70.54;97681.38;5042391;28;20206;-72
2023/11/03 08:38:36;;;;;;;4.23;0.93;;;;;;;10.23;70.63;97700.84;5046213;28;20213;-74
2023/11/03 08:41:04;;;;;;;4.17;1.10;;;;;;;10.28;70.57;97699.34;5044684;28;20202;-73
2023/11/03 08:43:30;;;;;;;4.37;0.80;;;;;;;10.35;69.45;97697.69;5040899;28;20618;-73
2023/11/03 08:45:57;;;;;;;3.93;1.20;;;;;;;10.39;69.55;97704.31;5047137;28;20868;-73
2023/11/03 08:48:25;;;;;;;5.33;1.60;;;;;;;10.38;70.15;97715.16;5043612;28;20675;-72
2023/11/03 08:50:51;;;;;;;3.47;0.90;;;;;;;10.40;70.33;97716.63;5048276;28;20530;-73
2023/11/03 08:53:19;;;;;;;3.73;0.90;;;;;;;10.48;70.24;97720.28;5041662;28;20289;-73
2023/11/03 08:55:45;;;;;;;6.27;1.10;;;;;;;10.50;69.84;97713.81;5046766;28;20202;-73
2023/11/03 08:58:13;;;;;;;3.77;1.53;;;;;;;10.49;69.98;97717.47;5043340;28;20203;-73
2023/11/03 09:00:40;;;;;;;2.83;1.13;;;;;;;10.49;69.80;97712.16;5042024;28;20235;-73
2023/11/03 09:03:07;;;;;;;4.17;0.97;;;;;;;10.51;69.54;97704.00;5045124;28;20238;-72
2023/11/03 09:05:33;;;;;;;1.70;0.60;;;;;;;10.52;69.17;97713.66;5049020;28;20719;-73
2023/11/03 09:08:00;;;;;;;3.00;1.30;;;;;;;10.56;69.93;97714.97;5044499;28;20217;-73
2023/11/03 09:10:28;;;;;;;3.47;1.20;;;;;;;10.58;69.91;97723.59;5045461;28;20203;-72
2023/11/03 09:12:55;;;;;;;6.20;0.97;;;;;;;10.63;69.75;97708.78;5045004;28;20234;-72
2023/11/03 09:15:23;;;;;;;3.33;1.10;;;;;;;10.66;69.09;97721.78;5048083;28;20219;-73
2023/11/03 09:17:50;;;;;;;2.93;0.90;;;;;;;10.78;68.79;97741.69;5044334;28;20305;-73
2023/11/03 09:20:17;;;;;;;4.87;0.87;;;;;;;10.90;68.69;97736.88;5049169;28;20214;-73
2023/11/03 09:22:46;;;;;;;3.77;1.10;;;;;;;11.00;68.15;97750.81;5045553;28;20207;-73
2023/11/03 09:25:12;;;;;;;6.90;2.07;;;;;;;11.05;67.94;97758.31;5046644;28;20253;-72
2023/11/03 09:27:39;;;;;;;6.23;0.87;;;;;;;11.08;68.02;97753.47;5044718;28;20629;-73
2023/11/03 09:30:10;;;;;;;2.53;0.77;;;;;;;11.16;67.61;97757.09;5047171;28;20207;-73
2023/11/03 09:32:38;;;;;;;5.03;0.93;;;;;;;11.27;67.23;97757.56;5047435;28;20209;-74
2023/11/03 09:35:05;;;;;;;5.47;0.90;;;;;;;11.34;66.65;97763.03;5043655;28;20313;-73
2023/11/03 09:37:32;;;;;;;4.30;1.50;;;;;;;11.38;66.86;97756.34;5044248;28;20222;-74
2023/11/03 09:40:00;;;;;;;3.40;0.97;;;;;;;11.40;66.15;97770.34;5045219;28;20207;-72
2023/11/03 09:42:26;;;;;;;2.77;0.97;;;;;;;11.48;65.70;97756.97;5043856;28;20279;-73
2023/11/03 09:44:53;;;;;;;3.30;0.80;;;;;;;11.54;65.35;97763.44;5045599;28;20245;-73
2023/11/03 09:47:19;;;;;;;5.20;1.20;;;;;;;11.56;64.80;97770.28;5043089;28;20712;-73
2023/11/03 09:49:48;;;;;;;1.80;0.83;;;;;;;11.60;64.46;97771.59;5046875;28;20217;-72
2023/11/03 09:52:15;;;;;;;4.57;1.10;;;;;;;11.67;64.64;97767.22;5044471;28;20388;-74
2023/11/03 09:54:41;;;;;;;4.10;1.10;;;;;;;11.70;64.09;97766.88;5043966;28;20724;-74
2023/11/03 09:57:10;;;;;;;3.63;1.27;;;;;;;11.66;63.93;97760.22;5045960;28;20195;-74
2023/11/03 09:59:38;;;;;;;5.33;0.90;;;;;;;11.73;63.97;97745.19;5044197;28;20220;-73
2023/11/03 10:02:09;;;;;;;3.47;1.07;;;;;;;11.73;63.70;97761.19;5046869;28;20202;-74
2023/11/03 10:04:36;;;;;;;4.80;1.30;;;;;;;11.77;64.01;97765.22;5047663;28;20227;-73
2023/11/03 10:07:04;;;;;;;3.53;0.70;;;;;;;11.75;64.06;97763.69;5045165;28;20226;-74
2023/11/03 10:09:30;;;;;;;6.00;1.53;;;;;;;11.73;64.04;97765.69;5048183;28;20236;-74
2023/11/03 10:11:57;;;;;;;4.47;1.50;;;;;;;11.80;63.63;97769.38;5043350;28;20220;-74
2023/11/03 10:14:24;;;;;;;3.97;0.80;;;;;;;11.78;63.61;97777.53;5044489;28;20226;-72
2023/11/03 10:16:51;;;;;;;4.27;1.13;;;;;;;11.78;63.77;97769.53;5045223;28;20202;-73
2023/11/03 10:19:19;;;;;;;3.70;0.97;;;;;;;11.77;63.25;97775.88;5044088;28;20242;-74
2023/11/03 10:21:46;;;;;;;5.07;1.00;;;;;;;11.71;64.14;97773.88;5038576;28;20380;-73
2023/11/03 10:24:16;;;;;;;2.90;0.87;;;;;;;11.73;63.78;97777.19;5045854;28;20231;-74
2023/11/03 10:26:43;;;;;;;4.83;1.00;;;;;;;11.72;63.75;97775.53;5043131;28;20254;-74
2023/11/03 10:29:11;;;;;;;1.70;0.90;;;;;;;11.76;64.52;97773.38;5042476;28;20676;-74
2023/11/03 10:31:39;;;;;;;1.80;0.60;;;;;;;11.78;63.96;97766.88;5042992;28;20278;-71
2023/11/03 10:34:05;;;;;;;3.60;0.80;;;;;;;11.80;63.69;97770.19;5041412;28;20228;-73
2023/11/03 10:36:33;;;;;;;5.43;1.13;;;;;;;11.76;64.56;97774.22;5043181;28;20200;-74
2023/11/03 10:39:00;;;;;;;3.83;1.10;;;;;;;11.80;64.75;97766.69;5043776;28;20205;-72
2023/11/03 10:41:28;;;;;;;4.60;1.23;;;;;;;11.78;64.54;97774.88;5039120;28;20213;-74
2023/11/03 10:43:58;;;;;;;7.30;0.97;;;;;;;11.76;64.78;97771.53;5040371;28;20233;-74
2023/11/03 10:46:32;;;;;;;7.87;1.50;;;;;;;11.75;64.05;97767.19;5041269;28;20646;-73
2023/11/03 10:49:11;;;;;;;6.40;1.57;;;;;;;11.72;64.66;97759.53;5045049;28;20210;-73
2023/11/03 10:51:42;;;;;;;4.33;1.20;;;;;;;11.75;65.01;97766.34;5039957;28;20408;-74
2023/11/03 10:54:22;;;;;;;3.80;1.20;;;;;;;11.75;64.93;97764.53;5044257;28;20729;-73
2023/11/03 10:56:50;;;;;;;3.53;1.00;;;;;;;11.78;65.16;97755.38;5035846;28;20196;-72
2023/11/03 10:59:18;;;;;;;4.40;1.27;;;;;;;11.75;65.17;97756.53;5040450;28;20216;-72
2023/11/03 11:01:52;;;;;;;7.77;1.20;;;;;;;11.76;65.43;97744.06;5045265;28;20210;-73
2023/11/03 11:04:26;;;;;;;3.73;1.10;;;;;;;11.77;65.48;97761.72;5041755;28;20233;-73
2023/11/03 11:06:56;;;;;;;4.63;1.23;;;;;;;11.77;65.26;97751.88;5044585;28;20475;-73
2023/11/03 11:09:32;;;;;;;3.27;1.00;;;;;;;11.81;64.88;97763.03;5042055;28;20205;-73
2023/11/03 11:12:02;;;;;;;7.50;1.77;;;;;;;11.78;65.44;97768.72;5042242;28;20203;-73
2023/11/03 11:14:30;;;;;;;4.63;1.10;;;;;;;11.77;65.21;97770.53;5043557;28;20796;-73
2023/11/03 11:16:58;;;;;;;3.73;0.90;;;;;;;11.85;65.73;97779.50;5040083;28;20208;-73
2023/11/03 11:19:36;;;;;;;5.10;1.33;;;;;;;11.91;65.22;97776.13;5040184;28;20209;-73
2023/11/03 11:22:04;;;;;;;4.07;1.20;;;;;;;11.97;64.91;97786.09;5039137;28;20564;-73
2023/11/03 11:24:31;;;;;;;4.13;1.37;;;;;;;11.99;65.19;97784.09;5041381;28;20231;-73
2023/11/03 11:30:01;;;;;;;4.80;1.20;;;;;;;12.01;65.61;97790.91;5080407;27;20548;-75
2023/11/03 11:32:28;;;;;;;5.17;1.00;;;;;;;12.09;64.60;97793.53;5066094;28;20204;-75
2023/11/03 11:34:57;;;;;;;5.57;1.73;;;;;;;12.10;65.22;97778.34;5063303;28;20227;-75
2023/11/03 11:37:28;;;;;;;4.80;0.97;;;;;;;12.17;65.07;97782.00;5060625;28;20210;-75
2023/11/03 11:39:57;;;;;;;8.60;1.53;;;;;;;12.16;64.60;97775.00;5070399;28;20216;-74
2023/11/03 11:42:26;;;;;;;3.70;0.73;;;;;;;12.18;64.59;97780.16;5062825;28;20197;-74